createdAt,value
2022-11-28T00:01:34.054Z,9.77
2022-11-28T00:04:01.322Z,9.52
2022-11-28T00:06:28.868Z,10.05
2022-11-28T00:08:59.451Z,8.88
2022-11-28T00:11:27.100Z,11.75
2022-11-28T00:13:54.953Z,10.10
2022-11-28T00:16:23.948Z,8.88
2022-11-28T00:18:53.674Z,10.77
2022-11-28T00:21:22.307Z,10.60
2022-11-28T00:23:50.587Z,8.85
2022-11-28T00:26:29.415Z,10.15
2022-11-28T00:28:57.880Z,9.35
2022-11-28T00:31:29.592Z,9.55
2022-11-28T00:33:56.906Z,9.10
2022-11-28T00:36:24.677Z,10.23
2022-11-28T00:38:52.236Z,9.38
2022-11-28T00:41:27.065Z,9.23
2022-11-28T00:43:54.790Z,12.23
2022-11-28T00:46:23.359Z,9.30
2022-11-28T00:48:51.300Z,8.60
2022-11-28T00:51:22.531Z,9.10
2022-11-28T00:53:51.584Z,9.57
2022-11-28T00:56:26.154Z,9.50
2022-11-28T00:58:53.624Z,10.98
2022-11-28T01:01:24.097Z,9.25
2022-11-28T01:03:53.374Z,9.57
2022-11-28T01:06:36.717Z,11.02
2022-11-28T01:09:17.289Z,11.48
2022-11-28T01:11:46.214Z,11.40
2022-11-28T01:14:13.959Z,8.45
2022-11-28T01:16:41.699Z,9.80
2022-11-28T01:19:08.988Z,10.25
2022-11-28T01:21:36.434Z,9.65
2022-11-28T01:24:03.827Z,11.38
2022-11-28T01:26:31.551Z,9.13
2022-11-28T01:29:00.750Z,10.60
2022-11-28T01:31:30.066Z,9.27
2022-11-28T01:33:57.928Z,8.63
2022-11-28T01:36:26.362Z,9.55
2022-11-28T01:38:53.920Z,10.20
2022-11-28T01:41:26.062Z,10.43
2022-11-28T01:44:13.234Z,10.50
2022-11-28T01:46:40.594Z,9.25
2022-11-28T01:49:36.237Z,9.20
2022-11-28T01:52:13.153Z,13.07
2022-11-28T01:54:44.502Z,11.40
2022-11-28T01:57:18.160Z,10.35
2022-11-28T02:00:08.928Z,10.63
2022-11-28T02:05:14.708Z,9.82
2022-11-28T02:07:43.796Z,13.55
2022-11-28T02:10:15.769Z,9.75
2022-11-28T02:13:31.413Z,13.43
2022-11-28T02:16:42.758Z,9.40
2022-11-28T02:19:35.010Z,9.65
2022-11-28T02:22:36.284Z,10.93
2022-11-28T02:25:44.166Z,9.38
2022-11-28T02:29:11.241Z,10.38
2022-11-28T02:32:09.976Z,11.38
2022-11-28T02:34:55.000Z,9.75
2022-11-28T02:37:37.274Z,9.60
2022-11-28T02:40:40.017Z,11.40
2022-11-28T02:43:41.627Z,9.63
2022-11-28T02:46:30.527Z,10.68
2022-11-28T02:49:21.899Z,14.35
2022-11-28T02:52:22.335Z,10.38
2022-11-28T02:54:51.150Z,11.18
2022-11-28T02:57:18.407Z,12.82
2022-11-28T02:59:50.412Z,11.38
2022-11-28T03:02:29.146Z,10.82
2022-11-28T03:05:27.165Z,13.35
2022-11-28T03:08:18.844Z,11.27
2022-11-28T03:11:04.127Z,11.65
2022-11-28T03:13:57.710Z,11.30
2022-11-28T03:17:07.809Z,12.20
2022-11-28T03:19:42.998Z,12.82
2022-11-28T03:22:12.206Z,12.87
2022-11-28T03:24:55.230Z,12.73
2022-11-28T03:27:51.732Z,13.43
2022-11-28T03:30:48.380Z,12.20
2022-11-28T03:33:17.969Z,14.80
2022-11-28T03:35:58.218Z,14.48
2022-11-28T03:38:36.525Z,14.40
2022-11-28T03:41:19.826Z,15.93
2022-11-28T03:43:53.968Z,17.42
2022-11-28T03:46:26.364Z,12.98
2022-11-28T03:48:58.983Z,13.63
2022-11-28T03:51:44.200Z,14.35
2022-11-28T03:54:34.841Z,13.93
2022-11-28T03:57:23.435Z,14.48
2022-11-28T03:59:53.340Z,13.93
2022-11-28T04:02:23.260Z,14.38
2022-11-28T04:05:32.629Z,14.10
2022-11-28T04:08:52.338Z,15.57
2022-11-28T04:11:25.783Z,14.82
2022-11-28T04:14:08.780Z,15.32
2022-11-28T04:16:42.050Z,14.50
2022-11-28T04:19:44.110Z,14.07
2022-11-28T04:22:28.924Z,17.48
2022-11-28T04:25:05.767Z,16.02
2022-11-28T04:27:42.887Z,15.05
2022-11-28T04:30:12.533Z,14.80
2022-11-28T04:32:46.943Z,17.05
2022-11-28T04:35:21.680Z,15.95
2022-11-28T04:37:50.246Z,15.60
2022-11-28T04:40:20.322Z,17.60
2022-11-28T04:42:59.123Z,17.05
2022-11-28T04:45:36.528Z,18.25
2022-11-28T04:48:04.183Z,17.90
2022-11-28T04:51:08.378Z,18.55
2022-11-28T04:53:45.614Z,19.23
2022-11-28T04:56:21.320Z,19.23
2022-11-28T04:58:50.749Z,20.13
2022-11-28T05:01:30.655Z,20.20
2022-11-28T05:03:57.942Z,18.73
2022-11-28T05:06:29.532Z,18.02
2022-11-28T05:08:57.121Z,17.80
2022-11-28T05:11:25.005Z,16.88
2022-11-28T05:13:52.407Z,17.60
2022-11-28T05:16:19.775Z,17.23
2022-11-28T05:18:46.867Z,17.25
2022-11-28T05:21:14.541Z,16.60
2022-11-28T05:23:44.282Z,15.35
2022-11-28T05:26:15.215Z,15.45
2022-11-28T05:28:49.685Z,15.48
2022-11-28T05:31:19.268Z,14.10
2022-11-28T05:33:46.552Z,14.57
2022-11-28T05:36:15.407Z,14.68
2022-11-28T05:38:43.648Z,15.82
2022-11-28T05:41:22.523Z,14.95
2022-11-28T05:43:50.133Z,15.13
2022-11-28T05:46:18.079Z,16.42
2022-11-28T05:48:45.312Z,15.60
2022-11-28T05:51:12.544Z,16.70
2022-11-28T05:53:39.562Z,17.38
2022-11-28T05:56:12.720Z,17.00
2022-11-28T05:58:40.364Z,17.58
2022-11-28T06:01:18.305Z,18.23
2022-11-28T06:03:46.157Z,17.25
2022-11-28T06:06:21.594Z,17.95
2022-11-28T06:08:51.482Z,18.08
2022-11-28T06:11:20.586Z,18.02
2022-11-28T06:13:49.404Z,17.70
2022-11-28T06:16:24.006Z,18.17
2022-11-28T06:19:00.535Z,17.98
2022-11-28T06:21:30.098Z,18.00
2022-11-28T06:23:59.298Z,18.30
2022-11-28T06:26:28.714Z,16.42
2022-11-28T06:28:55.961Z,17.17
2022-11-28T06:31:30.275Z,16.92
2022-11-28T06:33:58.978Z,16.75
2022-11-28T06:36:27.083Z,16.35
2022-11-28T06:38:54.373Z,16.98
2022-11-28T06:41:23.140Z,16.15
2022-11-28T06:43:50.812Z,16.30
2022-11-28T06:46:20.839Z,15.75
2022-11-28T06:48:50.445Z,15.90
2022-11-28T06:51:19.232Z,16.83
2022-11-28T06:53:46.636Z,15.75
2022-11-28T06:56:18.455Z,15.13
2022-11-28T06:58:47.159Z,14.35
2022-11-28T07:01:20.493Z,14.13
2022-11-28T07:03:48.471Z,15.07
2022-11-28T07:06:19.130Z,13.40
2022-11-28T07:08:47.807Z,14.27
2022-11-28T07:11:43.138Z,13.43
2022-11-28T07:14:10.765Z,13.27
2022-11-28T07:16:38.316Z,13.00
2022-11-28T07:19:05.497Z,13.20
2022-11-28T07:21:32.834Z,12.10
2022-11-28T07:24:00.477Z,12.13
2022-11-28T07:26:27.678Z,13.45
2022-11-28T07:28:56.217Z,12.07
2022-11-28T07:31:26.609Z,11.68
2022-11-28T07:33:54.306Z,12.30
2022-11-28T07:36:27.452Z,11.55
2022-11-28T07:39:00.509Z,11.45
2022-11-28T07:41:28.548Z,11.55
2022-11-28T07:44:00.054Z,11.27
2022-11-28T07:46:29.148Z,11.00
2022-11-28T07:48:56.566Z,10.73
2022-11-28T07:51:28.793Z,10.73
2022-11-28T07:53:56.616Z,12.63
2022-11-28T07:56:50.160Z,10.55
2022-11-28T07:59:18.246Z,10.68
2022-11-28T08:01:45.462Z,10.60
2022-11-28T08:04:12.706Z,10.40
2022-11-28T08:06:42.299Z,9.75
2022-11-28T08:09:12.127Z,12.60
2022-11-28T08:11:40.314Z,10.45
2022-11-28T08:14:07.552Z,10.00
2022-11-28T08:16:35.142Z,11.38
2022-11-28T08:19:03.330Z,10.27
2022-11-28T08:21:33.282Z,9.75
2022-11-28T08:24:01.975Z,10.23
2022-11-28T08:26:31.345Z,10.40
2022-11-28T08:29:02.995Z,9.65
2022-11-28T08:31:37.230Z,9.43
2022-11-28T08:34:09.366Z,9.85
2022-11-28T08:36:37.450Z,9.52
2022-11-28T08:41:59.837Z,9.82
2022-11-28T08:44:30.376Z,8.73
2022-11-28T08:46:57.800Z,9.18
2022-11-28T08:49:24.955Z,9.10
2022-11-28T08:51:52.243Z,9.32
2022-11-28T08:54:19.452Z,8.55
2022-11-28T08:56:48.177Z,8.90
2022-11-28T08:59:15.466Z,9.00
2022-11-28T09:01:43.101Z,8.75
2022-11-28T09:04:10.539Z,8.05
2022-11-28T09:06:41.020Z,7.95
2022-11-28T09:09:09.172Z,8.75
2022-11-28T09:11:37.485Z,8.90
2022-11-28T09:14:04.715Z,8.73
2022-11-28T09:16:31.920Z,8.52
2022-11-28T09:18:59.534Z,8.98
2022-11-28T09:21:27.035Z,7.85
2022-11-28T09:23:56.225Z,8.13
2022-11-28T09:26:25.441Z,8.13
2022-11-28T09:28:53.642Z,8.23
2022-11-28T09:31:21.507Z,7.57
2022-11-28T09:33:51.289Z,8.45
2022-11-28T09:36:21.557Z,8.38
2022-11-28T09:38:49.374Z,8.27
2022-11-28T09:41:28.919Z,7.85
2022-11-28T09:44:11.586Z,8.40
2022-11-28T09:46:40.853Z,8.55
2022-11-28T09:49:40.835Z,8.30
2022-11-28T09:52:23.746Z,8.25
2022-11-28T09:55:28.408Z,8.27
2022-11-28T09:57:57.253Z,8.50
2022-11-28T10:00:45.514Z,8.45
2022-11-28T10:04:08.515Z,8.45
2022-11-28T10:06:47.715Z,9.05
2022-11-28T10:09:55.782Z,9.48
2022-11-28T10:12:25.627Z,8.48
2022-11-28T10:15:13.952Z,8.50
2022-11-28T10:17:53.820Z,9.30
2022-11-28T10:20:24.196Z,8.65
2022-11-28T10:23:42.608Z,8.98
2022-11-28T10:26:31.209Z,9.60
2022-11-28T10:29:03.443Z,8.75
2022-11-28T10:31:44.554Z,9.02
2022-11-28T10:34:18.841Z,8.40
2022-11-28T10:37:04.634Z,8.90
2022-11-28T10:39:32.197Z,8.50
2022-11-28T10:42:17.969Z,8.10
2022-11-28T10:45:00.649Z,8.55
2022-11-28T10:47:49.096Z,7.88
2022-11-28T10:50:42.924Z,7.85
2022-11-28T10:53:45.859Z,8.13
2022-11-28T10:56:43.271Z,7.72
2022-11-28T10:59:28.720Z,7.43
2022-11-28T11:01:57.775Z,7.50
2022-11-28T11:04:27.662Z,7.22
2022-11-28T11:07:29.788Z,7.45
2022-11-28T11:10:27.606Z,6.97
2022-11-28T11:12:54.827Z,8.63
2022-11-28T11:15:30.299Z,7.03
2022-11-28T11:18:00.213Z,7.40
2022-11-28T11:20:34.043Z,7.00
2022-11-28T11:23:22.796Z,7.10
2022-11-28T11:25:58.239Z,7.07
2022-11-28T11:28:47.467Z,7.43
2022-11-28T11:31:30.369Z,7.03
2022-11-28T11:34:05.944Z,7.30
2022-11-28T11:36:36.457Z,7.72
2022-11-28T11:39:10.904Z,7.28
2022-11-28T11:42:01.018Z,7.45
2022-11-28T11:44:34.392Z,6.57
2022-11-28T11:47:10.583Z,7.35
2022-11-28T11:49:44.814Z,7.85
2022-11-28T11:52:14.950Z,7.68
2022-11-28T11:55:02.887Z,7.53
2022-11-28T11:57:39.055Z,8.00
2022-11-28T12:00:22.420Z,8.77
2022-11-28T12:03:00.526Z,8.38
2022-11-28T12:06:25.271Z,7.45
2022-11-28T12:09:08.910Z,7.75
2022-11-28T12:11:45.617Z,8.02
2022-11-28T12:14:33.452Z,8.05
2022-11-28T12:20:56.675Z,7.10
2022-11-28T12:23:32.607Z,7.70
2022-11-28T12:26:23.873Z,7.43
2022-11-28T12:29:00.791Z,8.20
2022-11-28T12:31:54.633Z,7.78
2022-11-28T12:34:39.648Z,7.63
2022-11-28T12:37:09.442Z,7.43
2022-11-28T12:40:26.261Z,7.30
2022-11-28T12:43:19.430Z,8.18
2022-11-28T12:46:21.841Z,6.53
2022-11-28T12:49:14.310Z,7.15
2022-11-28T12:52:05.443Z,7.22
2022-11-28T12:55:33.982Z,8.20
2022-11-28T12:58:24.003Z,6.80
2022-11-28T13:01:25.199Z,7.43
2022-11-28T13:04:37.797Z,6.95
2022-11-28T13:07:39.558Z,6.72
2022-11-28T13:10:36.126Z,7.70
2022-11-28T13:13:19.803Z,9.27
2022-11-28T13:16:11.935Z,7.30
2022-11-28T13:18:45.287Z,7.28
2022-11-28T13:21:36.965Z,7.30
2022-11-28T13:24:25.039Z,7.95
2022-11-28T13:27:15.951Z,9.00
2022-11-28T13:29:47.465Z,9.05
2022-11-28T13:32:47.469Z,9.07
2022-11-28T13:35:17.814Z,8.02
2022-11-28T13:41:02.124Z,9.70
2022-11-28T13:46:15.286Z,8.82
2022-11-28T13:51:33.912Z,9.43
2022-11-28T13:54:19.733Z,9.35
2022-11-28T13:57:05.152Z,8.98
2022-11-28T13:59:33.540Z,9.27
2022-11-28T14:02:05.027Z,9.20
2022-11-28T14:04:32.978Z,9.07
2022-11-28T14:07:04.759Z,9.32
2022-11-28T14:10:04.762Z,9.27
2022-11-28T14:13:23.564Z,9.45
2022-11-28T14:16:38.865Z,9.95
2022-11-28T14:19:39.596Z,9.32
2022-11-28T14:23:00.281Z,9.48
2022-11-28T14:25:40.295Z,10.52
2022-11-28T14:28:23.774Z,10.25
2022-11-28T14:31:00.082Z,10.52
2022-11-28T14:33:43.260Z,10.02
2022-11-28T14:36:29.758Z,9.93
2022-11-28T14:39:12.107Z,10.73
2022-11-28T14:42:04.772Z,11.13
2022-11-28T14:44:54.759Z,10.80
2022-11-28T14:47:34.948Z,11.52
2022-11-28T14:50:05.146Z,11.45
2022-11-28T14:52:46.575Z,11.07
2022-11-28T14:55:21.496Z,11.15
2022-11-28T14:58:00.306Z,11.70
2022-11-28T15:00:32.437Z,11.32
2022-11-28T15:03:12.670Z,11.18
2022-11-28T15:05:45.650Z,12.07
2022-11-28T15:08:50.893Z,11.77
2022-11-28T15:11:32.717Z,11.57
2022-11-28T15:14:09.349Z,13.93
2022-11-28T15:16:49.963Z,12.35
2022-11-28T15:19:33.969Z,11.90
2022-11-28T15:22:01.664Z,12.00
2022-11-28T15:24:35.687Z,12.73
2022-11-28T15:27:15.316Z,12.90
2022-11-28T15:30:02.682Z,13.45
2022-11-28T15:35:09.380Z,13.25
2022-11-28T15:37:49.567Z,15.35
2022-11-28T15:40:34.619Z,14.63
2022-11-28T15:43:08.058Z,15.00
2022-11-28T15:45:42.210Z,14.60
2022-11-28T15:48:39.466Z,15.93
2022-11-28T15:51:08.400Z,16.60
2022-11-28T15:53:42.460Z,15.40
2022-11-28T15:56:11.863Z,19.20
2022-11-28T15:58:39.946Z,18.20
2022-11-28T16:01:23.853Z,17.98
2022-11-28T16:04:17.465Z,19.50
2022-11-28T16:06:51.840Z,20.92
2022-11-28T16:09:18.853Z,18.42
2022-11-28T16:11:50.170Z,16.27
2022-11-28T16:14:36.361Z,20.90
2022-11-28T16:17:20.189Z,22.45
2022-11-28T16:19:51.679Z,23.05
2022-11-28T16:22:21.679Z,26.70
2022-11-28T16:24:55.470Z,22.77
2022-11-28T16:27:39.787Z,24.52
2022-11-28T16:30:27.154Z,37.30
2022-11-28T16:32:56.014Z,39.00
2022-11-28T16:35:38.990Z,47.90
2022-11-28T16:38:25.500Z,57.45
2022-11-28T16:41:01.680Z,65.03
2022-11-28T16:43:39.119Z,71.82
2022-11-28T16:46:19.242Z,85.93
2022-11-28T16:49:00.680Z,56.58
2022-11-28T16:51:33.811Z,60.03
2022-11-28T16:54:26.403Z,74.15
2022-11-28T16:57:17.344Z,65.53
2022-11-28T16:59:45.216Z,75.15
2022-11-28T17:02:23.777Z,67.50
2022-11-28T17:04:53.108Z,49.58
2022-11-28T17:07:23.585Z,113.70
2022-11-28T17:09:51.104Z,48.42
2022-11-28T17:12:29.861Z,90.47
2022-11-28T17:14:58.362Z,107.38
2022-11-28T17:17:26.224Z,105.22
2022-11-28T17:19:53.435Z,60.45
2022-11-28T17:22:25.276Z,176.82
2022-11-28T17:24:58.207Z,99.07
2022-11-28T17:27:25.415Z,110.57
2022-11-28T17:29:52.524Z,91.07
2022-11-28T17:32:19.817Z,199.38
2022-11-28T17:34:47.233Z,160.25
2022-11-28T17:37:14.804Z,108.85
2022-11-28T17:40:05.054Z,134.25
2022-11-28T17:42:32.423Z,115.32
2022-11-28T17:45:00.056Z,135.93
2022-11-28T17:47:27.519Z,149.73
2022-11-28T17:49:55.810Z,146.00
2022-11-28T17:52:27.812Z,122.85
2022-11-28T17:54:59.818Z,254.70
2022-11-28T17:57:30.038Z,105.70
2022-11-28T17:59:57.847Z,198.13
2022-11-28T18:02:25.199Z,206.38
2022-11-28T18:04:53.041Z,103.75
2022-11-28T18:07:20.378Z,168.80
2022-11-28T18:09:47.938Z,188.35
2022-11-28T18:12:15.194Z,182.57
2022-11-28T18:14:42.616Z,215.73
2022-11-28T18:17:09.812Z,201.00
2022-11-28T18:19:37.158Z,263.17
2022-11-28T18:22:04.417Z,185.35
2022-11-28T18:24:33.731Z,320.80
2022-11-28T18:27:00.968Z,251.30
2022-11-28T18:29:28.223Z,178.68
2022-11-28T18:31:55.449Z,83.25
2022-11-28T18:34:22.857Z,170.75
2022-11-28T18:36:50.011Z,168.25
2022-11-28T18:39:17.094Z,140.00
2022-11-28T18:41:44.945Z,203.05
2022-11-28T18:44:12.626Z,138.30
2022-11-28T18:46:40.130Z,93.95
2022-11-28T18:49:08.324Z,212.10
2022-11-28T18:51:36.099Z,133.23
2022-11-28T18:54:05.619Z,140.50
2022-11-28T18:56:34.758Z,172.85
2022-11-28T18:59:02.305Z,93.97
2022-11-28T19:01:33.269Z,80.20
2022-11-28T19:04:06.289Z,164.93
2022-11-28T19:06:36.506Z,187.10
2022-11-28T19:09:07.893Z,181.20
2022-11-28T19:11:35.711Z,146.20
2022-11-28T19:14:03.633Z,143.68
2022-11-28T19:16:35.346Z,165.15
2022-11-28T19:19:05.745Z,122.85
2022-11-28T19:21:35.917Z,113.43
2022-11-28T19:24:05.009Z,131.68
2022-11-28T19:26:37.473Z,130.50
2022-11-28T19:29:06.555Z,166.82
2022-11-28T19:31:36.667Z,140.63
2022-11-28T19:34:18.186Z,157.43
2022-11-28T19:36:50.113Z,98.85
2022-11-28T19:39:24.464Z,120.70
2022-11-28T19:41:54.414Z,181.45
2022-11-28T19:44:24.357Z,155.38
2022-11-28T19:46:53.015Z,174.43
2022-11-28T19:49:24.076Z,58.65
2022-11-28T19:51:52.536Z,151.13
2022-11-28T19:54:21.111Z,148.77
2022-11-28T19:56:49.737Z,186.05
2022-11-28T19:59:19.339Z,145.02
2022-11-28T20:01:49.999Z,187.90
2022-11-28T20:04:18.095Z,181.38
2022-11-28T20:06:45.926Z,94.28
2022-11-28T20:09:16.446Z,241.65
2022-11-28T20:11:45.502Z,249.07
2022-11-28T20:14:19.289Z,288.15
2022-11-28T20:16:47.649Z,237.65
2022-11-28T20:19:17.695Z,226.82
2022-11-28T20:21:46.383Z,153.15
2022-11-28T20:24:14.952Z,159.88
2022-11-28T20:26:43.979Z,127.38
2022-11-28T20:29:15.843Z,241.10
2022-11-28T20:31:47.662Z,155.43
2022-11-28T20:34:19.007Z,180.98
2022-11-28T20:36:53.231Z,177.73
2022-11-28T20:39:21.045Z,161.73
2022-11-28T20:41:48.333Z,229.93
2022-11-28T20:44:15.470Z,182.20
2022-11-28T20:46:44.052Z,135.30
2022-11-28T20:49:11.293Z,174.25
2022-11-28T20:51:38.823Z,162.27
2022-11-28T20:54:06.750Z,151.27
2022-11-28T20:57:12.779Z,129.10
2022-11-28T20:59:27.289Z,174.02
2022-11-28T21:01:54.536Z,169.93
2022-11-28T21:04:21.754Z,141.55
2022-11-28T21:06:49.301Z,208.93
2022-11-28T21:09:20.451Z,114.53
2022-11-28T21:11:58.534Z,169.65
2022-11-28T21:14:28.068Z,146.65
2022-11-28T21:16:55.820Z,167.10
2022-11-28T21:19:23.220Z,155.27
2022-11-28T21:21:50.579Z,108.68
2022-11-28T21:24:17.872Z,117.85
2022-11-28T21:26:52.657Z,133.52
2022-11-28T21:29:21.153Z,114.90
2022-11-28T21:31:48.515Z,107.00
2022-11-28T21:34:16.782Z,119.43
2022-11-28T21:36:44.944Z,153.63
2022-11-28T21:39:20.814Z,158.65
2022-11-28T21:41:48.275Z,115.60
2022-11-28T21:44:15.349Z,114.80
2022-11-28T21:46:43.168Z,156.77
2022-11-28T21:49:10.414Z,103.82
2022-11-28T21:51:40.631Z,111.32
2022-11-28T21:54:10.465Z,111.32
2022-11-28T21:56:37.970Z,104.45
2022-11-28T21:59:05.499Z,98.97
2022-11-28T22:01:32.667Z,112.50
2022-11-28T22:04:02.833Z,104.15
2022-11-28T22:06:31.708Z,95.30
2022-11-28T22:09:07.289Z,95.70
2022-11-28T22:11:36.210Z,97.88
2022-11-28T22:14:04.008Z,109.00
2022-11-28T22:16:31.514Z,123.30
2022-11-28T22:19:00.643Z,118.68
2022-11-28T22:24:16.345Z,151.80
2022-11-28T22:26:44.244Z,106.47
2022-11-28T22:29:12.196Z,100.55
2022-11-28T22:31:39.279Z,133.25
2022-11-28T22:34:06.524Z,121.55
2022-11-28T22:36:34.348Z,147.52
2022-11-28T22:39:03.509Z,136.88
2022-11-28T22:41:30.921Z,94.03
2022-11-28T22:44:01.663Z,78.88
2022-11-28T22:46:31.831Z,90.47
2022-11-28T22:49:01.161Z,96.45
2022-11-28T22:51:30.148Z,102.22
2022-11-28T22:54:01.405Z,103.32
2022-11-28T22:56:32.418Z,100.60
2022-11-28T22:59:00.934Z,94.07
2022-11-28T23:01:31.423Z,110.82
2022-11-28T23:04:00.206Z,83.65
2022-11-28T23:06:31.297Z,85.80
2022-11-28T23:09:00.602Z,105.75
2022-11-28T23:11:32.848Z,138.73
2022-11-28T23:14:02.376Z,97.57
2022-11-28T23:16:32.554Z,108.18
2022-11-28T23:19:04.007Z,132.45
2022-11-28T23:21:35.601Z,107.80
2022-11-28T23:24:07.858Z,102.32
2022-11-28T23:26:35.520Z,123.40
2022-11-28T23:29:05.261Z,132.95
2022-11-28T23:31:37.383Z,136.93
2022-11-28T23:34:05.687Z,122.28
2022-11-28T23:36:41.769Z,117.22
2022-11-28T23:39:19.743Z,137.13
2022-11-28T23:41:48.117Z,116.38
2022-11-28T23:44:17.741Z,125.78
2022-11-28T23:46:46.045Z,116.22
2022-11-28T23:49:14.488Z,102.45
2022-11-28T23:51:42.364Z,119.13
2022-11-28T23:54:11.160Z,102.45
2022-11-28T23:56:40.439Z,120.72
2022-11-28T23:59:09.543Z,104.63
